Time;durP1;ratioP1;P1;durP2;ratioP2;P2;SDS_P1;SDS_P2;PMS_P1;PMS_P2;Temp;Humidity;BMP_temperature;BMP_pressure;BME280_temperature;BME280_humidity;BME280_pressure;Samples;Min_cycle;Max_cycle;Signal;HPM_P1;HPM_P2
2022/11/05 00:11:00;;;;;;;4.25;3.08;;;;;;;;;;5075656;28;20129;-78
2022/11/05 00:19:05;;;;;;;5.13;3.00;;;;;;;;;;5060255;28;20097;-78
2022/11/05 00:27:02;;;;;;;8.73;2.90;;;;;;;;;;5075090;28;20040;-78
2022/11/05 00:29:28;;;;;;;5.47;3.00;;;;;;;;;;5057326;28;20055;-78
2022/11/05 00:31:53;;;;;;;6.32;2.80;;;;;;;;;;5074969;28;20048;-78
2022/11/05 00:34:19;;;;;;;4.60;2.67;;;;;;;;;;5074901;28;20056;-78
2022/11/05 00:36:44;;;;;;;3.78;2.65;;;;;;;;;;5056748;28;20029;-78
2022/11/05 00:39:09;;;;;;;4.65;2.88;;;;;;;;;;5074264;28;20036;-78
2022/11/05 00:41:34;;;;;;;3.53;2.60;;;;;;;;;;5056726;28;20037;-78
2022/11/05 00:46:44;;;;;;;3.80;2.55;;;;;;;;;;5059694;28;20082;-78
2022/11/05 00:52:54;;;;;;;6.05;2.65;;;;;;;;;;5074526;28;20031;-78
2022/11/05 00:54:38;;;;;;;3.53;2.55;;;;;;;;;;5045516;28;20033;-78
2022/11/05 00:57:04;;;;;;;4.43;2.60;;;;;;;;;;5074368;28;20091;-78
2022/11/05 00:59:29;;;;;;;3.67;2.47;;;;;;;;;;5074436;28;20029;-78
2022/11/05 01:01:54;;;;;;;3.83;2.67;;;;;;;;;;5074590;28;20494;-78
2022/11/05 01:04:20;;;;;;;4.53;2.42;;;;;;;;;;5039571;28;20135;-78
2022/11/05 01:06:45;;;;;;;4.47;2.42;;;;;;;;;;5056719;28;20028;-78
2022/11/05 01:09:10;;;;;;;2.45;2.17;;;;;;;;;;5074311;28;20486;-77
2022/11/05 01:11:36;;;;;;;4.35;2.55;;;;;;;;;;5056433;28;20483;-78
2022/11/05 01:14:05;;;;;;;5.28;2.40;;;;;;;;;;5074401;28;20024;-78
2022/11/05 01:16:30;;;;;;;4.68;2.22;;;;;;;;;;5056261;28;20501;-78
2022/11/05 01:18:56;;;;;;;3.28;2.10;;;;;;;;;;5056553;28;20104;-78
2022/11/05 01:21:21;;;;;;;2.83;2.17;;;;;;;;;;5056393;28;20055;-78
2022/11/05 01:23:47;;;;;;;2.53;2.00;;;;;;;;;;5056210;28;20033;-78
2022/11/05 01:26:12;;;;;;;3.50;2.20;;;;;;;;;;5056328;28;20063;-78
2022/11/05 01:28:38;;;;;;;4.40;2.10;;;;;;;;;;5074087;28;20025;-78
2022/11/05 01:31:03;;;;;;;3.38;2.13;;;;;;;;;;5074237;28;20033;-78
2022/11/05 01:33:28;;;;;;;3.95;2.28;;;;;;;;;;5056091;28;20073;-78
2022/11/05 01:35:54;;;;;;;3.22;2.10;;;;;;;;;;5074192;28;20103;-78
2022/11/05 01:38:19;;;;;;;2.88;2.20;;;;;;;;;;5073958;28;20102;-78
2022/11/05 01:40:45;;;;;;;3.40;1.85;;;;;;;;;;5073772;28;20323;-78
2022/11/05 01:43:21;;;;;;;2.58;1.80;;;;;;;;;;5055884;28;20040;-78
2022/11/05 01:45:49;;;;;;;4.90;1.90;;;;;;;;;;5055675;28;20028;-78
2022/11/05 01:48:20;;;;;;;2.85;2.05;;;;;;;;;;5073257;28;20036;-79
2022/11/05 01:51:01;;;;;;;2.38;1.85;;;;;;;;;;5072989;28;20370;-78
2022/11/05 01:53:40;;;;;;;2.90;1.60;;;;;;;;;;5038529;28;20024;-78
2022/11/05 01:56:09;;;;;;;3.85;1.80;;;;;;;;;;5073008;28;20028;-78
2022/11/05 01:58:47;;;;;;;2.40;1.65;;;;;;;;;;5055351;28;20096;-78
2022/11/05 02:01:12;;;;;;;3.92;2.08;;;;;;;;;;5073005;28;20042;-78
2022/11/05 02:03:38;;;;;;;2.75;1.90;;;;;;;;;;5055267;28;20100;-78
2022/11/05 02:06:08;;;;;;;3.30;1.65;;;;;;;;;;5055428;28;20035;-78
2022/11/05 02:09:05;;;;;;;2.85;1.70;;;;;;;;;;5055420;28;20116;-78
2022/11/05 02:11:31;;;;;;;4.63;2.00;;;;;;;;;;5059406;28;20044;-78
2022/11/05 02:13:56;;;;;;;2.85;1.77;;;;;;;;;;5055541;28;20037;-78
2022/11/05 02:16:31;;;;;;;2.38;1.70;;;;;;;;;;5072824;28;20035;-78
2022/11/05 02:19:18;;;;;;;4.07;1.60;;;;;;;;;;5072915;28;20099;-78
2022/11/05 02:22:02;;;;;;;2.72;1.70;;;;;;;;;;5054827;28;20470;-78
2022/11/05 02:24:30;;;;;;;2.38;1.50;;;;;;;;;;5073339;28;20379;-78
2022/11/05 02:27:13;;;;;;;2.55;1.48;;;;;;;;;;5054729;28;20039;-79
2022/11/05 02:29:44;;;;;;;3.35;1.50;;;;;;;;;;5054843;28;20175;-78
2022/11/05 02:32:20;;;;;;;3.08;1.40;;;;;;;;;;5072930;28;20025;-78
2022/11/05 02:35:03;;;;;;;2.15;1.70;;;;;;;;;;5072931;28;20354;-78
2022/11/05 02:37:42;;;;;;;2.90;1.38;;;;;;;;;;5072949;28;20071;-78
2022/11/05 02:40:28;;;;;;;1.85;1.40;;;;;;;;;;5054939;28;20526;-78
2022/11/05 02:43:06;;;;;;;1.95;1.45;;;;;;;;;;5054790;28;20444;-78
2022/11/05 02:45:42;;;;;;;2.50;1.50;;;;;;;;;;5054614;28;20027;-78
2022/11/05 02:48:35;;;;;;;2.17;1.50;;;;;;;;;;5054732;28;20024;-79
2022/11/05 02:51:24;;;;;;;2.70;1.40;;;;;;;;;;5054620;28;20142;-78
2022/11/05 02:53:58;;;;;;;2.30;1.50;;;;;;;;;;5043660;28;20461;-78
2022/11/05 02:56:27;;;;;;;4.47;1.45;;;;;;;;;;5072446;28;20037;-78
2022/11/05 02:58:53;;;;;;;1.27;1.13;;;;;;;;;;5054478;28;20020;-78
2022/11/05 03:01:18;;;;;;;2.67;1.50;;;;;;;;;;5054702;28;20443;-78
2022/11/05 03:03:47;;;;;;;1.77;1.40;;;;;;;;;;5054242;28;20107;-78
2022/11/05 03:06:33;;;;;;;3.55;1.30;;;;;;;;;;5072828;28;20029;-78
2022/11/05 03:09:17;;;;;;;2.05;1.40;;;;;;;;;;5072315;28;20372;-78
2022/11/05 03:12:06;;;;;;;2.90;1.48;;;;;;;;;;5072554;28;20175;-78
2022/11/05 03:14:44;;;;;;;2.60;1.48;;;;;;;;;;5072563;28;20028;-78
2022/11/05 03:17:32;;;;;;;1.92;1.40;;;;;;;;;;5037581;28;20052;-78
2022/11/05 03:20:14;;;;;;;3.95;1.23;;;;;;;;;;5054253;28;20087;-78
2022/11/05 03:22:48;;;;;;;2.15;1.45;;;;;;;;;;5072480;28;20025;-78
2022/11/05 03:25:17;;;;;;;2.55;1.52;;;;;;;;;;5054250;28;20497;-78
2022/11/05 03:27:46;;;;;;;1.80;1.38;;;;;;;;;;5054260;28;20368;-78
2022/11/05 03:30:13;;;;;;;2.97;1.50;;;;;;;;;;5054057;28;20108;-78
2022/11/05 03:32:41;;;;;;;3.05;1.30;;;;;;;;;;5054122;28;20099;-78
2022/11/05 03:35:10;;;;;;;4.45;1.45;;;;;;;;;;5054387;28;20029;-78
2022/11/05 03:37:38;;;;;;;3.47;1.30;;;;;;;;;;5072177;28;20029;-78
2022/11/05 03:40:07;;;;;;;1.92;1.20;;;;;;;;;;5054250;28;20435;-78
2022/11/05 03:42:35;;;;;;;1.88;1.25;;;;;;;;;;5071985;28;20028;-78
2022/11/05 03:45:04;;;;;;;3.78;1.42;;;;;;;;;;5072059;28;20039;-78
2022/11/05 03:47:34;;;;;;;2.30;1.20;;;;;;;;;;5053972;28;20443;-78
2022/11/05 03:50:17;;;;;;;3.75;1.15;;;;;;;;;;5053753;28;20021;-78
2022/11/05 03:53:03;;;;;;;2.80;1.40;;;;;;;;;;5053826;28;20025;-78
2022/11/05 03:55:35;;;;;;;1.98;1.30;;;;;;;;;;5037550;28;20360;-78
2022/11/05 03:58:03;;;;;;;2.70;1.30;;;;;;;;;;5037519;28;20045;-78
2022/11/05 04:00:28;;;;;;;2.90;1.33;;;;;;;;;;5034251;28;20075;-78
2022/11/05 04:02:54;;;;;;;2.03;1.20;;;;;;;;;;5051960;28;20028;-78
2022/11/05 04:05:19;;;;;;;2.20;1.25;;;;;;;;;;5034246;28;20047;-78
2022/11/05 04:13:24;;;;;;;3.53;1.25;;;;;;;;;;5036468;28;20052;-78
2022/11/05 04:18:35;;;;;;;2.85;1.42;;;;;;;;;;5040292;28;20382;-78
2022/11/05 04:26:29;;;;;;;3.80;1.30;;;;;;;;;;5025869;28;20036;-78
2022/11/05 04:31:39;;;;;;;4.20;1.50;;;;;;;;;;5054815;28;20036;-78
2022/11/05 04:34:04;;;;;;;2.03;1.15;;;;;;;;;;5037047;28;20400;-78
2022/11/05 04:36:30;;;;;;;1.38;1.10;;;;;;;;;;5036989;28;20040;-78
2022/11/05 04:38:55;;;;;;;3.88;1.65;;;;;;;;;;5055144;28;20040;-78
2022/11/05 04:41:21;;;;;;;1.45;0.95;;;;;;;;;;5054852;28;20422;-78
2022/11/05 04:43:46;;;;;;;3.08;1.20;;;;;;;;;;5055230;28;20036;-78
2022/11/05 04:46:11;;;;;;;2.00;1.10;;;;;;;;;;5054683;28;20490;-78
2022/11/05 04:48:37;;;;;;;2.88;1.20;;;;;;;;;;5036673;28;20079;-78
2022/11/05 04:51:03;;;;;;;2.17;1.20;;;;;;;;;;5054888;28;20095;-78
2022/11/05 04:53:29;;;;;;;2.55;1.20;;;;;;;;;;5036979;28;20021;-78
2022/11/05 04:56:27;;;;;;;2.15;1.27;;;;;;;;;;5036877;28;20036;-78
2022/11/05 04:58:52;;;;;;;3.03;1.30;;;;;;;;;;5054412;28;20107;-78
2022/11/05 05:01:20;;;;;;;1.35;1.10;;;;;;;;;;5054375;28;20025;-78
2022/11/05 05:03:49;;;;;;;5.35;1.40;;;;;;;;;;5036597;28;20021;-78
2022/11/05 05:06:15;;;;;;;3.95;1.42;;;;;;;;;;5036586;28;20041;-78
2022/11/05 05:08:41;;;;;;;1.75;1.30;;;;;;;;;;5036092;28;20029;-78
2022/11/05 05:11:12;;;;;;;2.10;1.33;;;;;;;;;;5036425;28;20099;-78
2022/11/05 05:13:37;;;;;;;1.83;1.17;;;;;;;;;;5036410;28;20040;-78
2022/11/05 05:16:20;;;;;;;2.50;1.30;;;;;;;;;;5019757;28;20448;-78
2022/11/05 05:18:45;;;;;;;1.65;1.02;;;;;;;;;;5054378;28;20383;-78
2022/11/05 05:23:54;;;;;;;2.70;1.17;;;;;;;;;;5038771;28;20031;-78
2022/11/05 05:26:20;;;;;;;2.08;1.20;;;;;;;;;;5036882;28;20045;-78
2022/11/05 05:28:45;;;;;;;3.78;1.05;;;;;;;;;;5035854;28;20037;-78
2022/11/05 05:31:11;;;;;;;3.55;1.38;;;;;;;;;;5036073;28;20504;-78
2022/11/05 05:33:36;;;;;;;2.47;1.20;;;;;;;;;;5004384;28;20021;-78
2022/11/05 05:36:02;;;;;;;3.13;1.08;;;;;;;;;;5021009;28;20034;-77
2022/11/05 05:38:28;;;;;;;3.45;1.20;;;;;;;;;;5020222;28;20121;-78
2022/11/05 05:40:57;;;;;;;3.80;1.10;;;;;;;;;;5035929;28;20403;-78
2022/11/05 05:43:22;;;;;;;2.10;1.10;;;;;;;;;;5035934;28;20040;-78
2022/11/05 05:45:47;;;;;;;3.95;1.25;;;;;;;;;;5053661;28;20063;-78
2022/11/05 05:48:13;;;;;;;2.63;1.27;;;;;;;;;;5019294;28;20029;-78
2022/11/05 05:50:38;;;;;;;2.13;1.10;;;;;;;;;;5053742;28;20529;-78
2022/11/05 05:53:03;;;;;;;5.82;1.45;;;;;;;;;;5036117;28;20037;-78
2022/11/05 05:55:29;;;;;;;1.77;1.20;;;;;;;;;;5053597;28;20111;-78
2022/11/05 05:57:54;;;;;;;1.20;1.10;;;;;;;;;;5050934;28;20438;-78
2022/11/05 06:00:19;;;;;;;2.28;1.20;;;;;;;;;;5055918;28;20048;-78
2022/11/05 06:02:45;;;;;;;1.67;1.10;;;;;;;;;;5038792;28;20075;-78
2022/11/05 06:05:10;;;;;;;3.28;1.10;;;;;;;;;;5039715;28;20028;-79
2022/11/05 06:07:36;;;;;;;1.67;1.13;;;;;;;;;;5056543;28;20111;-78
2022/11/05 06:10:01;;;;;;;2.38;1.10;;;;;;;;;;5056367;28;20035;-78
2022/11/05 06:12:28;;;;;;;2.72;1.15;;;;;;;;;;5074062;28;20032;-78
2022/11/05 06:14:53;;;;;;;2.08;1.20;;;;;;;;;;5056192;28;20491;-79
2022/11/05 06:17:19;;;;;;;1.33;0.90;;;;;;;;;;5039227;28;20055;-77
2022/11/05 06:19:44;;;;;;;2.42;1.00;;;;;;;;;;5055870;28;20484;-78
2022/11/05 06:22:09;;;;;;;2.38;1.45;;;;;;;;;;5039249;28;20040;-79
2022/11/05 06:24:35;;;;;;;1.88;1.27;;;;;;;;;;5038524;28;20078;-78
2022/11/05 06:27:00;;;;;;;10.52;1.95;;;;;;;;;;5055682;28;20051;-79
2022/11/05 06:29:25;;;;;;;8.30;2.08;;;;;;;;;;5072985;28;20020;-79
2022/11/05 06:31:51;;;;;;;6.25;1.60;;;;;;;;;;5072862;28;20424;-79
2022/11/05 06:34:16;;;;;;;7.63;1.88;;;;;;;;;;5038262;28;20033;-79
2022/11/05 06:36:42;;;;;;;4.93;2.00;;;;;;;;;;5072868;28;20028;-79
2022/11/05 06:39:11;;;;;;;5.72;1.80;;;;;;;;;;5072800;28;20089;-78
2022/11/05 06:41:36;;;;;;;4.45;1.80;;;;;;;;;;5055243;28;20020;-79
2022/11/05 06:44:02;;;;;;;6.22;1.58;;;;;;;;;;5055209;28;20028;-79
2022/11/05 06:46:27;;;;;;;9.32;2.00;;;;;;;;;;5055143;28;20028;-78
2022/11/05 06:48:53;;;;;;;6.88;1.52;;;;;;;;;;5072936;28;20032;-80
2022/11/05 06:51:18;;;;;;;7.20;1.50;;;;;;;;;;5055954;28;20043;-80
2022/11/05 06:53:43;;;;;;;4.28;1.40;;;;;;;;;;5039243;28;20438;-80
2022/11/05 06:56:09;;;;;;;7.22;1.60;;;;;;;;;;5073244;28;20036;-80
2022/11/05 06:58:34;;;;;;;7.63;1.70;;;;;;;;;;5055667;28;20063;-80
2022/11/05 07:01:06;;;;;;;6.75;1.67;;;;;;;;;;5073490;28;20442;-79
2022/11/05 07:03:32;;;;;;;2.35;1.58;;;;;;;;;;5056007;28;20034;-80
2022/11/05 07:06:00;;;;;;;6.75;2.50;;;;;;;;;;5038227;28;20032;-80
2022/11/05 07:08:30;;;;;;;6.22;1.90;;;;;;;;;;5038435;28;20078;-79
2022/11/05 07:10:56;;;;;;;9.95;2.00;;;;;;;;;;5055104;28;20024;-79
2022/11/05 07:13:21;;;;;;;9.70;2.10;;;;;;;;;;5055031;28;20036;-79
2022/11/05 07:15:46;;;;;;;9.48;2.28;;;;;;;;;;5073127;28;20115;-79
2022/11/05 07:18:12;;;;;;;7.20;2.35;;;;;;;;;;5072998;28;20040;-78
2022/11/05 07:20:37;;;;;;;7.75;2.22;;;;;;;;;;5038016;28;20017;-77
2022/11/05 07:23:10;;;;;;;10.02;2.90;;;;;;;;;;5054878;28;20028;-79
2022/11/05 07:25:36;;;;;;;7.57;2.57;;;;;;;;;;5037942;28;20115;-77
2022/11/05 07:28:02;;;;;;;6.38;2.70;;;;;;;;;;5055580;28;20806;-79
2022/11/05 07:30:28;;;;;;;6.57;2.40;;;;;;;;;;5038510;28;20024;-77
2022/11/05 07:32:54;;;;;;;5.60;2.35;;;;;;;;;;5073107;28;20085;-80
2022/11/05 07:35:19;;;;;;;4.78;2.33;;;;;;;;;;5054919;28;20531;-79
2022/11/05 07:37:46;;;;;;;8.73;2.50;;;;;;;;;;5038382;28;20025;-79
2022/11/05 07:40:13;;;;;;;4.43;2.40;;;;;;;;;;5072428;28;20035;-80
2022/11/05 07:42:46;;;;;;;4.45;2.30;;;;;;;;;;5037899;28;20106;-80
2022/11/05 07:45:12;;;;;;;9.25;2.80;;;;;;;;;;5037789;28;20569;-79
2022/11/05 07:47:45;;;;;;;4.53;2.20;;;;;;;;;;5022006;28;20127;-79
2022/11/05 07:50:11;;;;;;;6.70;2.10;;;;;;;;;;5063517;28;20040;-79
2022/11/05 07:52:36;;;;;;;3.92;2.35;;;;;;;;;;5041651;28;20032;-79
2022/11/05 07:55:02;;;;;;;5.38;2.50;;;;;;;;;;5058745;28;20111;-79
2022/11/05 07:57:27;;;;;;;5.57;2.25;;;;;;;;;;5074244;28;20056;-79
2022/11/05 07:59:53;;;;;;;5.97;2.50;;;;;;;;;;5058544;28;20033;-78
2022/11/05 08:02:18;;;;;;;6.55;2.67;;;;;;;;;;5075286;28;20438;-78
2022/11/05 08:04:43;;;;;;;5.97;2.53;;;;;;;;;;5076437;28;20036;-78
2022/11/05 08:07:09;;;;;;;8.15;2.28;;;;;;;;;;5042138;28;20039;-79
2022/11/05 08:09:34;;;;;;;8.20;2.60;;;;;;;;;;5076372;28;20029;-78
2022/11/05 08:12:00;;;;;;;7.72;2.50;;;;;;;;;;5041176;28;20063;-79
2022/11/05 08:14:25;;;;;;;3.65;2.42;;;;;;;;;;5076302;28;20033;-78
2022/11/05 08:16:50;;;;;;;5.30;2.47;;;;;;;;;;5041647;28;20029;-79
2022/11/05 08:19:16;;;;;;;11.32;2.33;;;;;;;;;;5076516;28;20074;-80
2022/11/05 08:21:41;;;;;;;4.55;2.20;;;;;;;;;;5058007;28;20055;-79
2022/11/05 08:24:07;;;;;;;9.30;2.60;;;;;;;;;;5075615;28;20391;-80
2022/11/05 08:26:32;;;;;;;5.60;2.15;;;;;;;;;;5076295;28;20031;-79
2022/11/05 08:28:59;;;;;;;17.27;3.20;;;;;;;;;;5058065;28;20103;-79
2022/11/05 08:31:24;;;;;;;20.65;3.50;;;;;;;;;;5057592;28;20047;-79
2022/11/05 08:33:50;;;;;;;12.32;3.22;;;;;;;;;;5024482;28;20040;-78
2022/11/05 08:36:15;;;;;;;18.00;3.88;;;;;;;;;;5075333;28;20032;-78
2022/11/05 08:38:40;;;;;;;16.67;3.58;;;;;;;;;;5057847;28;20384;-79
2022/11/05 08:41:06;;;;;;;17.00;3.63;;;;;;;;;;5075662;28;20029;-78
2022/11/05 08:43:31;;;;;;;18.67;3.40;;;;;;;;;;5058034;28;20033;-79
2022/11/05 08:46:00;;;;;;;16.52;3.55;;;;;;;;;;5041000;28;20445;-77
2022/11/05 08:48:25;;;;;;;16.05;2.95;;;;;;;;;;5057899;28;20533;-77
2022/11/05 08:50:50;;;;;;;17.83;3.40;;;;;;;;;;5075207;28;20123;-78
2022/11/05 08:53:16;;;;;;;20.25;3.75;;;;;;;;;;5057263;28;20085;-79
2022/11/05 08:55:42;;;;;;;12.50;3.00;;;;;;;;;;5057993;28;20043;-79
2022/11/05 08:58:16;;;;;;;9.18;3.03;;;;;;;;;;5058169;28;20454;-79
2022/11/05 09:00:45;;;;;;;9.98;2.97;;;;;;;;;;5061203;28;20033;-80
2022/11/05 09:03:10;;;;;;;8.52;3.03;;;;;;;;;;5057452;28;20035;-76
2022/11/05 09:05:37;;;;;;;13.10;3.13;;;;;;;;;;5056771;28;20037;-78
2022/11/05 09:08:07;;;;;;;10.57;3.55;;;;;;;;;;5056889;28;20024;-79
2022/11/05 09:10:33;;;;;;;12.25;3.00;;;;;;;;;;5056396;28;20093;-79
2022/11/05 09:12:58;;;;;;;13.57;2.80;;;;;;;;;;5056471;28;20466;-78
2022/11/05 09:15:24;;;;;;;9.75;2.75;;;;;;;;;;5089636;28;20032;-78
2022/11/05 09:17:49;;;;;;;8.10;3.13;;;;;;;;;;5056486;28;20086;-78
2022/11/05 09:20:15;;;;;;;14.25;3.47;;;;;;;;;;5072624;28;20028;-78
2022/11/05 09:22:41;;;;;;;9.68;3.00;;;;;;;;;;5056289;28;20032;-79
2022/11/05 09:25:07;;;;;;;10.10;2.78;;;;;;;;;;5089753;28;20087;-78
2022/11/05 09:27:32;;;;;;;13.20;3.42;;;;;;;;;;5056383;28;20398;-78
2022/11/05 09:29:57;;;;;;;17.65;2.88;;;;;;;;;;5074613;28;20078;-78
2022/11/05 09:32:23;;;;;;;13.65;2.95;;;;;;;;;;5056625;28;20032;-77
2022/11/05 09:34:48;;;;;;;12.23;2.70;;;;;;;;;;5074475;28;20538;-77
2022/11/05 09:37:14;;;;;;;15.68;2.58;;;;;;;;;;5056361;28;20101;-77
2022/11/05 09:39:40;;;;;;;7.60;2.40;;;;;;;;;;5074223;28;20025;-78
2022/11/05 09:42:12;;;;;;;7.35;2.33;;;;;;;;;;5039888;28;20054;-78
2022/11/05 09:44:46;;;;;;;9.32;2.50;;;;;;;;;;5072801;28;20032;-79
2022/11/05 09:47:16;;;;;;;7.65;2.35;;;;;;;;;;5056601;28;20099;-79
2022/11/05 09:49:47;;;;;;;10.70;2.50;;;;;;;;;;5056342;28;20024;-79
2022/11/05 09:52:17;;;;;;;5.72;2.40;;;;;;;;;;5056451;28;20040;-79
2022/11/05 09:54:44;;;;;;;13.68;2.30;;;;;;;;;;5039215;28;20028;-79
2022/11/05 09:57:13;;;;;;;12.68;2.38;;;;;;;;;;5072425;28;20044;-79
2022/11/05 09:59:41;;;;;;;17.40;2.75;;;;;;;;;;5075217;28;20466;-78
2022/11/05 10:02:23;;;;;;;7.80;2.22;;;;;;;;;;5057073;28;20025;-79
2022/11/05 10:04:57;;;;;;;7.30;2.60;;;;;;;;;;5056032;28;20051;-79
2022/11/05 10:07:25;;;;;;;8.45;2.60;;;;;;;;;;5073646;28;20040;-79
2022/11/05 10:09:58;;;;;;;7.45;2.30;;;;;;;;;;5057144;28;20111;-77
2022/11/05 10:12:49;;;;;;;9.27;2.58;;;;;;;;;;5055423;28;20035;-79
2022/11/05 10:15:25;;;;;;;4.05;2.25;;;;;;;;;;5072392;28;20032;-77
2022/11/05 10:17:55;;;;;;;6.18;2.60;;;;;;;;;;5055837;28;20032;-78
2022/11/05 10:20:34;;;;;;;5.80;2.65;;;;;;;;;;5055507;28;20498;-78
2022/11/05 10:23:11;;;;;;;7.00;2.75;;;;;;;;;;5073457;28;20505;-78
2022/11/05 10:25:59;;;;;;;5.85;2.30;;;;;;;;;;5073550;28;20405;-78
2022/11/05 10:28:28;;;;;;;9.07;2.05;;;;;;;;;;5059160;28;20376;-77
2022/11/05 10:30:58;;;;;;;11.55;2.20;;;;;;;;;;5055584;28;20117;-78
2022/11/05 10:33:49;;;;;;;6.05;2.25;;;;;;;;;;5072111;28;20328;-79
2022/11/05 10:36:17;;;;;;;5.78;2.53;;;;;;;;;;5031406;28;20040;-78
2022/11/05 10:38:43;;;;;;;10.60;2.33;;;;;;;;;;5054859;28;20390;-79
2022/11/05 10:41:13;;;;;;;5.05;2.10;;;;;;;;;;5055226;28;20029;-79
2022/11/05 10:43:50;;;;;;;5.53;2.33;;;;;;;;;;5072283;28;20380;-77
2022/11/05 10:46:42;;;;;;;7.57;2.25;;;;;;;;;;5071813;28;20051;-78
2022/11/05 10:49:32;;;;;;;11.05;2.22;;;;;;;;;;5055487;28;20031;-79
2022/11/05 10:51:59;;;;;;;14.77;2.20;;;;;;;;;;5055730;28;20024;-76
2022/11/05 10:54:31;;;;;;;11.73;2.20;;;;;;;;;;5072523;28;20478;-78
2022/11/05 10:56:56;;;;;;;10.45;2.28;;;;;;;;;;5072324;28;20452;-78
2022/11/05 10:59:27;;;;;;;3.90;1.90;;;;;;;;;;5073906;28;20060;-79
2022/11/05 11:01:59;;;;;;;5.88;2.60;;;;;;;;;;5073818;28;20032;-79
2022/11/05 11:04:26;;;;;;;10.50;2.75;;;;;;;;;;5074631;28;20032;-78
2022/11/05 11:06:55;;;;;;;7.18;1.70;;;;;;;;;;5056336;28;20036;-78
2022/11/05 11:09:22;;;;;;;11.52;2.63;;;;;;;;;;5038832;28;20029;-82
2022/11/05 11:12:04;;;;;;;7.13;2.20;;;;;;;;;;5074019;28;20111;-79
2022/11/05 11:14:30;;;;;;;6.32;2.33;;;;;;;;;;5056228;28;20061;-79
2022/11/05 11:17:23;;;;;;;9.50;2.25;;;;;;;;;;5040194;28;20391;-80
2022/11/05 11:19:50;;;;;;;4.80;2.03;;;;;;;;;;5056501;28;20463;-80
2022/11/05 11:22:20;;;;;;;6.90;2.25;;;;;;;;;;5056414;28;20029;-79
2022/11/05 11:24:52;;;;;;;7.65;2.30;;;;;;;;;;5058629;28;20032;-79
2022/11/05 11:27:24;;;;;;;6.88;2.08;;;;;;;;;;5060383;28;20466;-79
2022/11/05 11:29:55;;;;;;;9.20;2.28;;;;;;;;;;5078212;28;20028;-79
2022/11/05 11:32:21;;;;;;;5.15;2.00;;;;;;;;;;5061055;28;20036;-78
2022/11/05 11:34:52;;;;;;;8.55;2.05;;;;;;;;;;5078073;28;20166;-78
2022/11/05 11:37:24;;;;;;;7.65;2.17;;;;;;;;;;5076478;28;20475;-78
2022/11/05 11:39:54;;;;;;;6.28;2.15;;;;;;;;;;5059284;28;20020;-78
2022/11/05 11:42:29;;;;;;;5.85;1.92;;;;;;;;;;5042695;28;20028;-79
2022/11/05 11:44:57;;;;;;;3.80;1.65;;;;;;;;;;5059232;28;20549;-78
2022/11/05 11:47:23;;;;;;;6.43;2.30;;;;;;;;;;5059400;28;20028;-78
2022/11/05 11:49:54;;;;;;;14.43;3.00;;;;;;;;;;5059002;28;20035;-79
2022/11/05 11:52:31;;;;;;;11.95;4.22;;;;;;;;;;5058802;28;20032;-78
2022/11/05 11:55:12;;;;;;;15.88;5.07;;;;;;;;;;5059407;28;20017;-78
2022/11/05 11:57:49;;;;;;;13.88;4.95;;;;;;;;;;5058326;28;20057;-78
2022/11/05 12:00:16;;;;;;;19.25;6.30;;;;;;;;;;5059105;28;20029;-78
2022/11/05 12:03:06;;;;;;;18.95;7.00;;;;;;;;;;5076771;28;20044;-77
2022/11/05 12:05:57;;;;;;;18.58;7.43;;;;;;;;;;5077046;28;20020;-80
2022/11/05 12:08:35;;;;;;;20.00;7.13;;;;;;;;;;5059531;28;20104;-82
2022/11/05 12:11:14;;;;;;;32.58;9.60;;;;;;;;;;5059068;28;20032;-79
2022/11/05 12:13:48;;;;;;;19.67;8.43;;;;;;;;;;5094891;28;20029;-77
2022/11/05 12:16:45;;;;;;;18.48;8.70;;;;;;;;;;5060918;28;20025;-78
2022/11/05 12:19:16;;;;;;;22.35;9.05;;;;;;;;;;5059130;28;20064;-78
2022/11/05 12:22:03;;;;;;;17.77;8.55;;;;;;;;;;5077093;28;20505;-78
2022/11/05 12:24:54;;;;;;;25.58;8.95;;;;;;;;;;5059090;28;20094;-77
2022/11/05 12:27:40;;;;;;;16.88;7.53;;;;;;;;;;5077167;28;20028;-77
2022/11/05 12:30:24;;;;;;;30.88;8.77;;;;;;;;;;5075916;28;20485;-78
2022/11/05 12:33:06;;;;;;;19.77;8.57;;;;;;;;;;5041193;28;20021;-77
2022/11/05 12:35:41;;;;;;;19.63;8.40;;;;;;;;;;5056725;28;20028;-78
2022/11/05 12:38:12;;;;;;;16.88;7.95;;;;;;;;;;5074765;28;20075;-78
2022/11/05 12:41:04;;;;;;;15.65;7.82;;;;;;;;;;5076032;28;20428;-77
2022/11/05 12:43:48;;;;;;;20.02;8.38;;;;;;;;;;5058443;28;20024;-77
2022/11/05 12:46:13;;;;;;;15.00;7.53;;;;;;;;;;5076694;28;20078;-79
2022/11/05 12:48:44;;;;;;;20.02;7.78;;;;;;;;;;5058524;28;20474;-77
2022/11/05 12:51:34;;;;;;;18.33;7.43;;;;;;;;;;5058182;28;20028;-76
2022/11/05 12:54:21;;;;;;;20.15;7.25;;;;;;;;;;5058041;28;20063;-76
2022/11/05 12:56:51;;;;;;;18.13;7.07;;;;;;;;;;5041138;28;20027;-76
2022/11/05 12:59:33;;;;;;;12.32;6.80;;;;;;;;;;5058397;28;20406;-77
2022/11/05 13:02:21;;;;;;;12.80;6.70;;;;;;;;;;5058996;28;20047;-77
2022/11/05 13:05:18;;;;;;;17.38;6.78;;;;;;;;;;5059371;28;20024;-76
2022/11/05 13:08:03;;;;;;;12.32;6.50;;;;;;;;;;5057719;28;20028;-76
2022/11/05 13:10:56;;;;;;;15.10;6.22;;;;;;;;;;5058411;28;20391;-76
2022/11/05 13:13:49;;;;;;;13.13;6.70;;;;;;;;;;5055326;28;20048;-76
2022/11/05 13:16:39;;;;;;;13.75;5.88;;;;;;;;;;5078825;28;20378;-77
2022/11/05 13:19:33;;;;;;;14.68;5.75;;;;;;;;;;5048465;28;20120;-79
2022/11/05 13:22:00;;;;;;;;;;;;;;;;;;5058155;28;20051;-75
2022/11/05 13:24:36;;;;;;;8.68;5.13;;;;;;;;;;5060832;28;19915;-78
2022/11/05 13:27:17;;;;;;;11.30;5.40;;;;;;;;;;5060747;28;20051;-78
2022/11/05 13:29:47;;;;;;;10.85;5.60;;;;;;;;;;5077954;28;20031;-79
2022/11/05 13:32:34;;;;;;;10.10;5.25;;;;;;;;;;5076340;28;20032;-78
2022/11/05 13:35:02;;;;;;;13.98;5.13;;;;;;;;;;5077096;28;20390;-79
2022/11/05 13:40:18;;;;;;;10.82;5.28;;;;;;;;;;5061509;28;20078;-78
2022/11/05 13:43:26;;;;;;;10.40;4.57;;;;;;;;;;5076679;28;20055;-78
2022/11/05 13:46:03;;;;;;;12.55;4.72;;;;;;;;;;5060744;28;20024;-78
2022/11/05 13:48:32;;;;;;;9.98;4.70;;;;;;;;;;5041114;28;20367;-78
2022/11/05 13:51:19;;;;;;;8.45;4.70;;;;;;;;;;5057548;28;20079;-79
2022/11/05 13:54:07;;;;;;;9.50;4.18;;;;;;;;;;5076048;28;20049;-78
2022/11/05 13:56:51;;;;;;;7.20;4.22;;;;;;;;;;5075776;28;20328;-79
2022/11/05 13:59:40;;;;;;;9.25;4.53;;;;;;;;;;5057070;28;20048;-79
2022/11/05 14:02:12;;;;;;;6.13;3.88;;;;;;;;;;5075319;28;20506;-79
2022/11/05 14:04:58;;;;;;;9.15;3.83;;;;;;;;;;5059373;28;20382;-78
2022/11/05 14:07:27;;;;;;;6.07;3.55;;;;;;;;;;5075752;28;20130;-78
2022/11/05 14:09:58;;;;;;;5.70;3.10;;;;;;;;;;5059098;28;20074;-78
2022/11/05 14:12:28;;;;;;;5.75;3.78;;;;;;;;;;5058795;28;20034;-78
2022/11/05 14:15:00;;;;;;;8.90;3.83;;;;;;;;;;5074073;28;20050;-78
2022/11/05 14:17:29;;;;;;;7.45;3.60;;;;;;;;;;5073509;28;20031;-78
2022/11/05 14:20:04;;;;;;;7.22;3.58;;;;;;;;;;5057261;28;20024;-78
2022/11/05 14:22:32;;;;;;;7.30;3.28;;;;;;;;;;5056270;28;20032;-78
2022/11/05 14:24:59;;;;;;;4.97;3.08;;;;;;;;;;5073587;28;20023;-78
2022/11/05 14:27:24;;;;;;;5.95;3.40;;;;;;;;;;5072192;28;20035;-78
2022/11/05 14:29:49;;;;;;;6.18;3.05;;;;;;;;;;5074010;28;20029;-78
2022/11/05 14:32:24;;;;;;;8.25;3.00;;;;;;;;;;5038942;28;20029;-78
2022/11/05 14:34:49;;;;;;;6.15;3.47;;;;;;;;;;5073747;28;20028;-78
2022/11/05 14:37:49;;;;;;;7.30;2.88;;;;;;;;;;5055752;28;20043;-78
2022/11/05 14:40:20;;;;;;;6.70;3.10;;;;;;;;;;5072789;28;20029;-78
2022/11/05 14:42:54;;;;;;;6.15;3.25;;;;;;;;;;5073835;28;20036;-79
2022/11/05 14:45:27;;;;;;;8.70;3.30;;;;;;;;;;5039085;28;20558;-78
2022/11/05 14:47:56;;;;;;;5.05;2.95;;;;;;;;;;5073674;28;20028;-78
2022/11/05 14:50:28;;;;;;;8.15;3.13;;;;;;;;;;5055590;28;20035;-78
2022/11/05 14:52:57;;;;;;;11.65;3.45;;;;;;;;;;5055649;28;20017;-79
2022/11/05 14:55:36;;;;;;;4.72;3.15;;;;;;;;;;5057958;28;20020;-78
2022/11/05 14:58:05;;;;;;;6.78;3.05;;;;;;;;;;5053944;28;20049;-77
2022/11/05 15:00:31;;;;;;;9.35;2.80;;;;;;;;;;5054810;28;20029;-77
2022/11/05 15:03:02;;;;;;;6.03;3.17;;;;;;;;;;5070842;28;20048;-77
2022/11/05 15:05:33;;;;;;;4.85;2.53;;;;;;;;;;5055019;28;20028;-77
2022/11/05 15:08:37;;;;;;;7.45;2.97;;;;;;;;;;5074532;28;20028;-77
2022/11/05 15:11:17;;;;;;;6.63;2.60;;;;;;;;;;5074790;28;20135;-78
2022/11/05 15:13:56;;;;;;;5.53;2.45;;;;;;;;;;5057126;28;20123;-76
2022/11/05 15:16:29;;;;;;;4.40;2.80;;;;;;;;;;5053649;28;20035;-77
2022/11/05 15:18:55;;;;;;;8.88;2.83;;;;;;;;;;5073685;28;20036;-78
2022/11/05 15:21:21;;;;;;;6.60;2.80;;;;;;;;;;5053933;28;20021;-78
2022/11/05 15:23:48;;;;;;;5.55;2.58;;;;;;;;;;5058097;28;20035;-77
2022/11/05 15:26:17;;;;;;;5.90;2.72;;;;;;;;;;5073750;28;20379;-78
2022/11/05 15:28:48;;;;;;;9.40;2.97;;;;;;;;;;5073151;28;20028;-76
2022/11/05 15:31:13;;;;;;;10.15;2.92;;;;;;;;;;5039253;28;20044;-76
2022/11/05 15:33:40;;;;;;;6.80;2.75;;;;;;;;;;5073353;28;20020;-76
2022/11/05 15:36:14;;;;;;;13.10;2.78;;;;;;;;;;5055417;28;20025;-76
2022/11/05 15:38:40;;;;;;;7.80;2.65;;;;;;;;;;5072981;28;20043;-76
2022/11/05 15:41:15;;;;;;;5.15;2.55;;;;;;;;;;5038508;28;20024;-76
2022/11/05 15:43:47;;;;;;;4.75;2.53;;;;;;;;;;5054847;28;20131;-76
2022/11/05 15:46:14;;;;;;;4.45;2.33;;;;;;;;;;5054657;28;20063;-77
2022/11/05 15:48:40;;;;;;;7.90;2.17;;;;;;;;;;5038149;28;20360;-77
2022/11/05 15:51:05;;;;;;;4.45;2.28;;;;;;;;;;5020339;28;20064;-77
2022/11/05 15:53:33;;;;;;;8.65;2.33;;;;;;;;;;5034586;28;20159;-77